sensor_id;sensor_type;location;lat;lon;timestamp;pressure;altitude;pressure_sealevel;temperature;humidity
69198;BME280;56311;50.298;8.514;2022-12-08T00:01:04;62402.38;;;-147.88;100.00
69198;BME280;56311;50.298;8.514;2022-12-08T00:03:32;62402.38;;;-147.88;100.00
69198;BME280;56311;50.298;8.514;2022-12-08T00:06:01;62402.38;;;-147.88;100.00
69198;BME280;56311;50.298;8.514;2022-12-08T00:08:51;62402.38;;;-147.88;100.00
69198;BME280;56311;50.298;8.514;2022-12-08T00:11:36;62402.38;;;-147.88;100.00
69198;BME280;56311;50.298;8.514;2022-12-08T00:14:04;62402.38;;;-147.88;100.00
69198;BME280;56311;50.298;8.514;2022-12-08T00:16:31;62402.38;;;-147.88;100.00
69198;BME280;56311;50.298;8.514;2022-12-08T00:18:58;62402.38;;;-147.88;100.00
69198;BME280;56311;50.298;8.514;2022-12-08T00:21:27;62402.38;;;-147.88;100.00
69198;BME280;56311;50.298;8.514;2022-12-08T00:23:54;62402.38;;;-147.88;100.00
69198;BME280;56311;50.298;8.514;2022-12-08T00:26:21;62402.38;;;-147.88;100.00
69198;BME280;56311;50.298;8.514;2022-12-08T00:28:48;62402.38;;;-147.88;100.00
69198;BME280;56311;50.298;8.514;2022-12-08T00:31:15;62402.38;;;-147.88;100.00
69198;BME280;56311;50.298;8.514;2022-12-08T00:33:42;62402.38;;;-147.88;100.00
69198;BME280;56311;50.298;8.514;2022-12-08T00:36:10;62402.38;;;-147.88;100.00
69198;BME280;56311;50.298;8.514;2022-12-08T00:38:40;62402.38;;;-147.88;100.00
69198;BME280;56311;50.298;8.514;2022-12-08T00:41:11;62402.38;;;-147.88;100.00
69198;BME280;56311;50.298;8.514;2022-12-08T00:43:38;62402.38;;;-147.88;100.00
69198;BME280;56311;50.298;8.514;2022-12-08T00:46:05;62402.38;;;-147.88;100.00
69198;BME280;56311;50.298;8.514;2022-12-08T00:48:32;62402.38;;;-147.88;100.00
69198;BME280;56311;50.298;8.514;2022-12-08T00:50:59;62402.38;;;-147.88;100.00
69198;BME280;56311;50.298;8.514;2022-12-08T00:53:25;62402.38;;;-147.88;100.00
69198;BME280;56311;50.298;8.514;2022-12-08T00:55:54;62402.38;;;-147.88;100.00
69198;BME280;56311;50.298;8.514;2022-12-08T00:58:20;62402.38;;;-147.88;100.00
69198;BME280;56311;50.298;8.514;2022-12-08T01:00:47;62402.38;;;-147.88;100.00
69198;BME280;56311;50.298;8.514;2022-12-08T01:03:14;62402.38;;;-147.88;100.00
69198;BME280;56311;50.298;8.514;2022-12-08T01:05:41;62402.38;;;-147.88;100.00
69198;BME280;56311;50.298;8.514;2022-12-08T01:08:08;62402.38;;;-147.88;100.00
69198;BME280;56311;50.298;8.514;2022-12-08T01:10:35;62402.38;;;-147.88;100.00
69198;BME280;56311;50.298;8.514;2022-12-08T01:13:03;62402.38;;;-147.88;100.00
69198;BME280;56311;50.298;8.514;2022-12-08T01:15:30;62402.38;;;-147.88;100.00
69198;BME280;56311;50.298;8.514;2022-12-08T01:17:57;62402.38;;;-147.88;100.00
69198;BME280;56311;50.298;8.514;2022-12-08T01:20:23;62402.38;;;-147.88;100.00
69198;BME280;56311;50.298;8.514;2022-12-08T01:22:50;62402.38;;;-147.88;100.00
69198;BME280;56311;50.298;8.514;2022-12-08T01:25:17;62402.38;;;-147.88;100.00
69198;BME280;56311;50.298;8.514;2022-12-08T01:27:43;62402.38;;;-147.88;100.00
69198;BME280;56311;50.298;8.514;2022-12-08T01:30:13;62402.38;;;-147.88;100.00
69198;BME280;56311;50.298;8.514;2022-12-08T01:32:39;62402.38;;;-147.88;100.00
69198;BME280;56311;50.298;8.514;2022-12-08T01:35:07;62402.38;;;-147.88;100.00
69198;BME280;56311;50.298;8.514;2022-12-08T01:37:34;62402.38;;;-147.88;100.00
69198;BME280;56311;50.298;8.514;2022-12-08T01:40:00;62402.38;;;-147.88;100.00
69198;BME280;56311;50.298;8.514;2022-12-08T01:42:28;62402.38;;;-147.88;100.00
69198;BME280;56311;50.298;8.514;2022-12-08T01:44:59;62402.38;;;-147.88;100.00
69198;BME280;56311;50.298;8.514;2022-12-08T01:47:32;62402.38;;;-147.88;100.00
69198;BME280;56311;50.298;8.514;2022-12-08T01:49:59;62402.38;;;-147.88;100.00
69198;BME280;56311;50.298;8.514;2022-12-08T01:52:31;62402.38;;;-147.88;100.00
69198;BME280;56311;50.298;8.514;2022-12-08T01:55:03;62402.38;;;-147.88;100.00
69198;BME280;56311;50.298;8.514;2022-12-08T01:57:33;62402.38;;;-147.88;100.00
69198;BME280;56311;50.298;8.514;2022-12-08T02:00:05;62402.38;;;-147.88;100.00
69198;BME280;56311;50.298;8.514;2022-12-08T02:02:38;62402.38;;;-147.88;100.00
69198;BME280;56311;50.298;8.514;2022-12-08T02:05:09;62402.38;;;-147.88;100.00
69198;BME280;56311;50.298;8.514;2022-12-08T02:07:36;62402.38;;;-147.88;100.00
69198;BME280;56311;50.298;8.514;2022-12-08T02:10:04;97517.22;;;1.62;100.00
69198;BME280;56311;50.298;8.514;2022-12-08T02:12:32;97164.53;;;1.15;100.00
69198;BME280;56311;50.298;8.514;2022-12-08T02:14:58;97171.94;;;1.13;100.00
69198;BME280;56311;50.298;8.514;2022-12-08T02:17:41;97155.94;;;1.13;100.00
69198;BME280;56311;50.298;8.514;2022-12-08T02:20:37;97157.44;;;1.21;100.00
69198;BME280;56311;50.298;8.514;2022-12-08T02:23:12;97154.19;;;1.19;100.00
69198;BME280;56311;50.298;8.514;2022-12-08T02:25:57;97157.56;;;1.14;100.00
69198;BME280;56311;50.298;8.514;2022-12-08T02:28:43;97144.56;;;1.18;100.00
69198;BME280;56311;50.298;8.514;2022-12-08T02:31:21;97147.72;;;1.15;100.00
69198;BME280;56311;50.298;8.514;2022-12-08T02:34:10;97148.59;;;1.20;100.00
69198;BME280;56311;50.298;8.514;2022-12-08T02:36:47;62402.38;;;-147.88;100.00
69198;BME280;56311;50.298;8.514;2022-12-08T02:39:26;62402.38;;;-147.88;100.00
69198;BME280;56311;50.298;8.514;2022-12-08T02:42:00;62402.38;;;-147.88;100.00
69198;BME280;56311;50.298;8.514;2022-12-08T02:44:32;62402.38;;;-147.88;100.00
69198;BME280;56311;50.298;8.514;2022-12-08T02:47:05;97147.00;;;1.19;100.00
69198;BME280;56311;50.298;8.514;2022-12-08T02:49:35;97139.91;;;1.25;100.00
69198;BME280;56311;50.298;8.514;2022-12-08T02:52:34;97139.09;;;1.24;100.00
69198;BME280;56311;50.298;8.514;2022-12-08T02:54:56;97128.75;;;1.28;100.00
69198;BME280;56311;50.298;8.514;2022-12-08T02:57:30;97139.41;;;1.28;100.00
69198;BME280;56311;50.298;8.514;2022-12-08T03:00:05;97129.22;;;1.25;100.00
69198;BME280;56311;50.298;8.514;2022-12-08T03:02:51;97127.63;;;1.24;100.00
69198;BME280;56311;50.298;8.514;2022-12-08T03:05:41;97121.25;;;1.25;100.00
69198;BME280;56311;50.298;8.514;2022-12-08T03:08:16;97115.59;;;1.21;100.00
69198;BME280;56311;50.298;8.514;2022-12-08T03:10:50;97120.91;;;1.21;100.00
69198;BME280;56311;50.298;8.514;2022-12-08T03:13:21;97115.13;;;1.24;100.00
69198;BME280;56311;50.298;8.514;2022-12-08T03:15:50;97115.75;;;1.15;100.00
69198;BME280;56311;50.298;8.514;2022-12-08T03:18:22;97113.56;;;1.11;100.00
69198;BME280;56311;50.298;8.514;2022-12-08T03:20:50;97114.47;;;1.17;100.00
69198;BME280;56311;50.298;8.514;2022-12-08T03:23:18;97112.34;;;1.19;100.00
69198;BME280;56311;50.298;8.514;2022-12-08T03:25:50;97105.91;;;1.15;100.00
69198;BME280;56311;50.298;8.514;2022-12-08T03:28:18;97104.84;;;1.16;100.00
69198;BME280;56311;50.298;8.514;2022-12-08T03:30:47;97100.31;;;1.17;100.00
69198;BME280;56311;50.298;8.514;2022-12-08T03:33:18;97093.94;;;1.18;100.00
69198;BME280;56311;50.298;8.514;2022-12-08T03:35:49;97099.34;;;1.23;100.00
69198;BME280;56311;50.298;8.514;2022-12-08T03:38:16;97097.41;;;1.18;100.00
69198;BME280;56311;50.298;8.514;2022-12-08T03:40:44;97094.53;;;1.20;100.00
69198;BME280;56311;50.298;8.514;2022-12-08T03:43:32;97095.06;;;1.22;100.00
69198;BME280;56311;50.298;8.514;2022-12-08T03:45:58;97088.94;;;1.21;100.00
69198;BME280;56311;50.298;8.514;2022-12-08T03:48:25;97093.53;;;1.26;100.00
69198;BME280;56311;50.298;8.514;2022-12-08T03:50:52;97087.56;;;1.19;100.00
69198;BME280;56311;50.298;8.514;2022-12-08T03:53:19;97075.88;;;1.20;100.00
69198;BME280;56311;50.298;8.514;2022-12-08T03:55:45;97077.97;;;1.18;100.00
69198;BME280;56311;50.298;8.514;2022-12-08T03:58:12;97078.28;;;1.21;100.00
69198;BME280;56311;50.298;8.514;2022-12-08T04:00:40;97083.53;;;1.16;100.00
69198;BME280;56311;50.298;8.514;2022-12-08T04:03:07;97076.41;;;1.22;100.00
69198;BME280;56311;50.298;8.514;2022-12-08T04:05:33;97064.38;;;1.19;100.00
69198;BME280;56311;50.298;8.514;2022-12-08T04:08:00;97066.25;;;1.19;100.00
69198;BME280;56311;50.298;8.514;2022-12-08T04:10:27;97074.72;;;1.16;100.00
69198;BME280;56311;50.298;8.514;2022-12-08T04:12:57;97069.91;;;1.13;100.00
69198;BME280;56311;50.298;8.514;2022-12-08T04:15:23;97068.03;;;1.13;100.00
69198;BME280;56311;50.298;8.514;2022-12-08T04:17:51;97067.31;;;1.18;100.00
69198;BME280;56311;50.298;8.514;2022-12-08T04:20:18;97068.66;;;1.20;100.00
69198;BME280;56311;50.298;8.514;2022-12-08T04:22:45;97057.13;;;1.15;100.00
69198;BME280;56311;50.298;8.514;2022-12-08T04:25:11;97062.63;;;1.08;100.00
69198;BME280;56311;50.298;8.514;2022-12-08T04:27:38;97057.78;;;1.05;100.00
69198;BME280;56311;50.298;8.514;2022-12-08T04:30:06;97064.25;;;1.09;100.00
69198;BME280;56311;50.298;8.514;2022-12-08T04:32:36;97050.59;;;1.05;100.00
69198;BME280;56311;50.298;8.514;2022-12-08T04:35:09;97052.44;;;1.05;100.00
69198;BME280;56311;50.298;8.514;2022-12-08T04:37:36;97051.91;;;1.03;100.00
69198;BME280;56311;50.298;8.514;2022-12-08T04:40:04;97046.16;;;1.11;100.00
69198;BME280;56311;50.298;8.514;2022-12-08T04:42:31;97046.97;;;1.11;100.00
69198;BME280;56311;50.298;8.514;2022-12-08T04:44:57;97049.00;;;1.04;100.00
69198;BME280;56311;50.298;8.514;2022-12-08T04:47:24;97041.31;;;1.08;100.00
69198;BME280;56311;50.298;8.514;2022-12-08T04:49:51;97041.25;;;1.03;100.00
69198;BME280;56311;50.298;8.514;2022-12-08T04:52:19;97034.69;;;1.10;100.00
69198;BME280;56311;50.298;8.514;2022-12-08T04:54:45;97035.94;;;1.03;100.00
69198;BME280;56311;50.298;8.514;2022-12-08T04:57:12;97037.50;;;1.04;100.00
69198;BME280;56311;50.298;8.514;2022-12-08T04:59:39;97042.63;;;1.05;100.00
69198;BME280;56311;50.298;8.514;2022-12-08T05:02:05;97031.66;;;1.02;100.00
69198;BME280;56311;50.298;8.514;2022-12-08T05:04:32;97030.03;;;1.01;100.00
69198;BME280;56311;50.298;8.514;2022-12-08T05:06:59;97040.44;;;1.02;100.00
69198;BME280;56311;50.298;8.514;2022-12-08T05:09:27;97036.47;;;1.05;100.00
69198;BME280;56311;50.298;8.514;2022-12-08T05:11:54;97033.91;;;1.10;100.00
69198;BME280;56311;50.298;8.514;2022-12-08T05:14:21;97039.78;;;1.12;100.00
69198;BME280;56311;50.298;8.514;2022-12-08T05:16:48;97030.41;;;1.09;100.00
69198;BME280;56311;50.298;8.514;2022-12-08T05:19:15;97032.19;;;1.04;100.00
69198;BME280;56311;50.298;8.514;2022-12-08T05:21:43;97028.00;;;1.08;100.00
69198;BME280;56311;50.298;8.514;2022-12-08T05:24:09;97032.75;;;1.06;100.00
69198;BME280;56311;50.298;8.514;2022-12-08T05:26:38;97034.38;;;1.07;100.00
69198;BME280;56311;50.298;8.514;2022-12-08T05:29:04;97035.50;;;1.11;100.00
69198;BME280;56311;50.298;8.514;2022-12-08T05:31:31;97026.97;;;1.09;100.00
69198;BME280;56311;50.298;8.514;2022-12-08T05:33:58;97021.38;;;1.10;100.00
69198;BME280;56311;50.298;8.514;2022-12-08T05:36:29;97025.09;;;1.09;100.00
69198;BME280;56311;50.298;8.514;2022-12-08T05:38:56;97019.03;;;1.14;100.00
69198;BME280;56311;50.298;8.514;2022-12-08T05:41:23;97017.91;;;1.10;100.00
69198;BME280;56311;50.298;8.514;2022-12-08T05:43:51;97023.25;;;1.10;100.00
69198;BME280;56311;50.298;8.514;2022-12-08T05:46:18;97021.63;;;1.09;100.00
69198;BME280;56311;50.298;8.514;2022-12-08T05:48:45;97013.84;;;1.07;100.00
69198;BME280;56311;50.298;8.514;2022-12-08T05:51:16;97023.25;;;1.10;100.00
69198;BME280;56311;50.298;8.514;2022-12-08T05:53:43;97017.34;;;1.08;100.00
69198;BME280;56311;50.298;8.514;2022-12-08T05:56:10;97008.53;;;1.07;100.00
69198;BME280;56311;50.298;8.514;2022-12-08T05:58:37;97012.81;;;1.08;100.00
69198;BME280;56311;50.298;8.514;2022-12-08T06:01:05;97012.81;;;1.08;100.00
69198;BME280;56311;50.298;8.514;2022-12-08T06:03:33;97011.44;;;1.06;100.00
69198;BME280;56311;50.298;8.514;2022-12-08T06:05:59;97015.97;;;1.05;100.00
69198;BME280;56311;50.298;8.514;2022-12-08T06:08:26;97004.28;;;1.06;100.00
69198;BME280;56311;50.298;8.514;2022-12-08T06:10:53;97006.13;;;1.06;100.00
69198;BME280;56311;50.298;8.514;2022-12-08T06:13:20;97009.91;;;1.10;100.00
69198;BME280;56311;50.298;8.514;2022-12-08T06:15:46;97004.03;;;1.08;100.00
69198;BME280;56311;50.298;8.514;2022-12-08T06:18:14;97006.75;;;1.13;100.00
69198;BME280;56311;50.298;8.514;2022-12-08T06:20:41;97004.66;;;1.15;100.00
69198;BME280;56311;50.298;8.514;2022-12-08T06:23:08;97008.94;;;1.16;100.00
69198;BME280;56311;50.298;8.514;2022-12-08T06:25:35;97001.94;;;1.10;100.00
69198;BME280;56311;50.298;8.514;2022-12-08T06:28:03;97016.69;;;1.18;100.00
69198;BME280;56311;50.298;8.514;2022-12-08T06:30:30;97007.81;;;1.12;100.00
69198;BME280;56311;50.298;8.514;2022-12-08T06:32:57;97003.63;;;1.16;100.00
69198;BME280;56311;50.298;8.514;2022-12-08T06:35:25;97004.66;;;1.15;100.00
69198;BME280;56311;50.298;8.514;2022-12-08T06:37:52;96999.06;;;1.17;100.00
69198;BME280;56311;50.298;8.514;2022-12-08T06:40:18;97010.31;;;1.19;100.00
69198;BME280;56311;50.298;8.514;2022-12-08T06:42:45;96994.06;;;1.20;100.00
69198;BME280;56311;50.298;8.514;2022-12-08T06:45:14;97009.56;;;1.23;100.00
69198;BME280;56311;50.298;8.514;2022-12-08T06:47:41;97005.28;;;1.22;100.00
69198;BME280;56311;50.298;8.514;2022-12-08T06:50:09;97010.06;;;1.20;100.00
69198;BME280;56311;50.298;8.514;2022-12-08T06:52:38;96991.72;;;1.24;100.00
69198;BME280;56311;50.298;8.514;2022-12-08T06:55:21;96990.66;;;1.25;100.00
69198;BME280;56311;50.298;8.514;2022-12-08T06:58:09;96998.91;;;1.23;100.00
69198;BME280;56311;50.298;8.514;2022-12-08T07:00:37;96994.88;;;1.21;100.00
69198;BME280;56311;50.298;8.514;2022-12-08T07:03:03;96997.28;;;1.22;100.00
69198;BME280;56311;50.298;8.514;2022-12-08T07:05:30;96990.19;;;1.28;100.00
69198;BME280;56311;50.298;8.514;2022-12-08T07:07:59;96989.38;;;1.27;100.00
69198;BME280;56311;50.298;8.514;2022-12-08T07:10:26;96997.88;;;1.24;100.00
69198;BME280;56311;50.298;8.514;2022-12-08T07:12:53;96990.97;;;1.29;100.00
69198;BME280;56311;50.298;8.514;2022-12-08T07:15:20;97000.59;;;1.30;100.00
69198;BME280;56311;50.298;8.514;2022-12-08T07:17:47;97005.34;;;1.27;100.00
69198;BME280;56311;50.298;8.514;2022-12-08T07:20:14;97004.78;;;1.25;100.00
69198;BME280;56311;50.298;8.514;2022-12-08T07:22:46;97003.72;;;1.26;100.00
69198;BME280;56311;50.298;8.514;2022-12-08T07:25:14;97004.56;;;1.27;100.00
69198;BME280;56311;50.298;8.514;2022-12-08T07:27:41;97004.00;;;1.25;100.00
69198;BME280;56311;50.298;8.514;2022-12-08T07:30:09;97007.44;;;1.25;100.00
69198;BME280;56311;50.298;8.514;2022-12-08T07:32:36;96996.56;;;1.27;100.00
69198;BME280;56311;50.298;8.514;2022-12-08T07:35:04;97001.91;;;1.27;100.00
69198;BME280;56311;50.298;8.514;2022-12-08T07:37:31;97000.84;;;1.28;100.00
69198;BME280;56311;50.298;8.514;2022-12-08T07:39:58;97002.13;;;1.25;100.00
69198;BME280;56311;50.298;8.514;2022-12-08T07:42:26;96991.72;;;1.24;100.00
69198;BME280;56311;50.298;8.514;2022-12-08T07:44:53;96991.97;;;1.22;100.00
69198;BME280;56311;50.298;8.514;2022-12-08T07:47:20;96994.38;;;1.24;100.00
69198;BME280;56311;50.298;8.514;2022-12-08T07:49:46;97000.28;;;1.26;100.00
69198;BME280;56311;50.298;8.514;2022-12-08T07:52:13;96998.41;;;1.26;100.00
69198;BME280;56311;50.298;8.514;2022-12-08T07:54:40;97003.81;;;1.32;100.00
69198;BME280;56311;50.298;8.514;2022-12-08T07:57:06;96999.53;;;1.31;100.00
69198;BME280;56311;50.298;8.514;2022-12-08T07:59:36;97013.66;;;1.31;100.00
69198;BME280;56311;50.298;8.514;2022-12-08T08:02:03;96998.25;;;1.33;100.00
69198;BME280;56311;50.298;8.514;2022-12-08T08:04:50;96995.06;;;1.36;100.00
69198;BME280;56311;50.298;8.514;2022-12-08T08:07:17;96996.13;;;1.35;100.00
69198;BME280;56311;50.298;8.514;2022-12-08T08:09:44;97002.00;;;1.37;100.00
69198;BME280;56311;50.298;8.514;2022-12-08T08:12:11;97002.84;;;1.38;100.00
69198;BME280;56311;50.298;8.514;2022-12-08T08:15:00;96999.34;;;1.37;100.00
69198;BME280;56311;50.298;8.514;2022-12-08T08:17:27;97003.06;;;1.36;100.00
69198;BME280;56311;50.298;8.514;2022-12-08T08:19:54;97002.84;;;1.38;100.00
69198;BME280;56311;50.298;8.514;2022-12-08T08:22:21;97004.44;;;1.39;100.00
69198;BME280;56311;50.298;8.514;2022-12-08T08:24:48;97004.44;;;1.39;100.00
69198;BME280;56311;50.298;8.514;2022-12-08T08:27:15;97004.94;;;1.36;100.00
69198;BME280;56311;50.298;8.514;2022-12-08T08:29:42;97010.88;;;1.43;100.00
69198;BME280;56311;50.298;8.514;2022-12-08T08:32:10;97005.31;;;1.45;100.00
69198;BME280;56311;50.298;8.514;2022-12-08T08:34:37;96997.31;;;1.45;100.00
69198;BME280;56311;50.298;8.514;2022-12-08T08:37:04;97003.94;;;1.42;100.00
69198;BME280;56311;50.298;8.514;2022-12-08T08:39:31;96996.00;;;1.47;100.00
69198;BME280;56311;50.298;8.514;2022-12-08T08:41:58;96995.53;;;1.50;100.00
69198;BME280;56311;50.298;8.514;2022-12-08T08:44:25;97003.22;;;1.47;100.00
69198;BME280;56311;50.298;8.514;2022-12-08T08:46:51;97004.63;;;1.54;100.00
69198;BME280;56311;50.298;8.514;2022-12-08T08:49:20;97007.81;;;1.51;100.00
69198;BME280;56311;50.298;8.514;2022-12-08T08:51:46;97000.78;;;1.45;100.00
69198;BME280;56311;50.298;8.514;2022-12-08T08:54:14;97009.41;;;1.52;100.00
69198;BME280;56311;50.298;8.514;2022-12-08T08:59:24;97005.13;;;1.51;100.00
69198;BME280;56311;50.298;8.514;2022-12-08T09:01:54;96999.84;;;1.56;100.00
69198;BME280;56311;50.298;8.514;2022-12-08T09:04:22;97009.91;;;1.49;100.00
69198;BME280;56311;50.298;8.514;2022-12-08T09:06:49;97001.16;;;1.54;100.00
69198;BME280;56311;50.298;8.514;2022-12-08T09:09:16;97003.09;;;1.58;100.00
69198;BME280;56311;50.298;8.514;2022-12-08T09:11:43;97004.72;;;1.59;100.00
69198;BME280;56311;50.298;8.514;2022-12-08T09:14:10;96998.06;;;1.62;100.00
69198;BME280;56311;50.298;8.514;2022-12-08T09:16:37;96993.34;;;1.69;100.00
69198;BME280;56311;50.298;8.514;2022-12-08T09:19:08;97001.63;;;1.68;100.00
69198;BME280;56311;50.298;8.514;2022-12-08T09:21:36;96999.78;;;1.73;100.00
69198;BME280;56311;50.298;8.514;2022-12-08T09:24:05;62402.38;;;-147.88;100.00
69198;BME280;56311;50.298;8.514;2022-12-08T09:26:32;62402.38;;;-147.88;100.00
69198;BME280;56311;50.298;8.514;2022-12-08T09:28:59;62402.38;;;-147.88;100.00
69198;BME280;56311;50.298;8.514;2022-12-08T09:31:26;62402.38;;;-147.88;100.00
69198;BME280;56311;50.298;8.514;2022-12-08T09:33:53;62402.38;;;-147.88;100.00
69198;BME280;56311;50.298;8.514;2022-12-08T09:36:20;62402.38;;;-147.88;100.00
69198;BME280;56311;50.298;8.514;2022-12-08T09:38:48;62402.38;;;-147.88;100.00
69198;BME280;56311;50.298;8.514;2022-12-08T09:41:20;62402.38;;;-147.88;100.00
69198;BME280;56311;50.298;8.514;2022-12-08T09:43:59;62402.38;;;-147.88;100.00
69198;BME280;56311;50.298;8.514;2022-12-08T09:46:29;62402.38;;;-147.88;100.00
69198;BME280;56311;50.298;8.514;2022-12-08T09:48:58;62402.38;;;-147.88;100.00
69198;BME280;56311;50.298;8.514;2022-12-08T09:51:29;62402.38;;;-147.88;100.00
69198;BME280;56311;50.298;8.514;2022-12-08T09:54:00;62402.38;;;-147.88;100.00
69198;BME280;56311;50.298;8.514;2022-12-08T09:56:30;62402.38;;;-147.88;100.00
69198;BME280;56311;50.298;8.514;2022-12-08T09:59:02;62402.38;;;-147.88;100.00
69198;BME280;56311;50.298;8.514;2022-12-08T10:01:31;62402.38;;;-147.88;100.00
69198;BME280;56311;50.298;8.514;2022-12-08T10:03:59;62402.38;;;-147.88;100.00
69198;BME280;56311;50.298;8.514;2022-12-08T10:06:31;62402.38;;;-147.88;100.00
69198;BME280;56311;50.298;8.514;2022-12-08T10:09:11;62402.38;;;-147.88;100.00
69198;BME280;56311;50.298;8.514;2022-12-08T10:11:53;62402.38;;;-147.88;100.00
69198;BME280;56311;50.298;8.514;2022-12-08T10:14:26;62402.38;;;-147.88;100.00
69198;BME280;56311;50.298;8.514;2022-12-08T10:17:02;62402.38;;;-147.88;100.00
69198;BME280;56311;50.298;8.514;2022-12-08T10:19:33;62402.38;;;-147.88;100.00
69198;BME280;56311;50.298;8.514;2022-12-08T10:22:01;62402.38;;;-147.88;100.00
69198;BME280;56311;50.298;8.514;2022-12-08T10:24:34;62402.38;;;-147.88;100.00
69198;BME280;56311;50.298;8.514;2022-12-08T10:27:04;62402.38;;;-147.88;100.00
69198;BME280;56311;50.298;8.514;2022-12-08T10:29:35;62402.38;;;-147.88;100.00
69198;BME280;56311;50.298;8.514;2022-12-08T10:32:17;96963.38;;;2.39;100.00
69198;BME280;56311;50.298;8.514;2022-12-08T10:34:59;62402.38;;;-147.88;100.00
69198;BME280;56311;50.298;8.514;2022-12-08T10:37:26;62402.38;;;-147.88;100.00
69198;BME280;56311;50.298;8.514;2022-12-08T10:40:00;62402.38;;;-147.88;100.00
69198;BME280;56311;50.298;8.514;2022-12-08T10:42:34;62402.38;;;-147.88;100.00
69198;BME280;56311;50.298;8.514;2022-12-08T10:45:14;62402.38;;;-147.88;100.00
69198;BME280;56311;50.298;8.514;2022-12-08T10:47:49;62402.38;;;-147.88;100.00
69198;BME280;56311;50.298;8.514;2022-12-08T10:50:23;62402.38;;;-147.88;100.00
69198;BME280;56311;50.298;8.514;2022-12-08T10:52:55;62402.38;;;-147.88;100.00
69198;BME280;56311;50.298;8.514;2022-12-08T10:55:24;62402.38;;;-147.88;100.00
69198;BME280;56311;50.298;8.514;2022-12-08T10:57:51;62402.38;;;-147.88;100.00
69198;BME280;56311;50.298;8.514;2022-12-08T11:00:25;62402.38;;;-147.88;100.00
69198;BME280;56311;50.298;8.514;2022-12-08T11:02:57;62402.38;;;-147.88;100.00
69198;BME280;56311;50.298;8.514;2022-12-08T11:05:28;62402.38;;;-147.88;100.00
69198;BME280;56311;50.298;8.514;2022-12-08T11:07:56;62402.38;;;-147.88;100.00
69198;BME280;56311;50.298;8.514;2022-12-08T11:10:32;96963.38;;;2.39;100.00
69198;BME280;56311;50.298;8.514;2022-12-08T11:13:05;96939.88;;;2.41;100.00
69198;BME280;56311;50.298;8.514;2022-12-08T11:15:36;96935.59;;;2.40;100.00
69198;BME280;56311;50.298;8.514;2022-12-08T11:18:19;96932.91;;;2.40;100.00
69198;BME280;56311;50.298;8.514;2022-12-08T11:20:54;96924.88;;;2.35;100.00
69198;BME280;56311;50.298;8.514;2022-12-08T11:23:24;96929.44;;;2.34;100.00
69198;BME280;56311;50.298;8.514;2022-12-08T11:25:55;96921.44;;;2.39;100.00
69198;BME280;56311;50.298;8.514;2022-12-08T11:28:24;96927.88;;;2.44;100.00
69198;BME280;56311;50.298;8.514;2022-12-08T11:30:56;62402.38;;;-147.88;100.00
69198;BME280;56311;50.298;8.514;2022-12-08T11:33:25;62402.38;;;-147.88;100.00
69198;BME280;56311;50.298;8.514;2022-12-08T11:35:57;62402.38;;;-147.88;100.00
69198;BME280;56311;50.298;8.514;2022-12-08T11:38:26;62402.38;;;-147.88;100.00
69198;BME280;56311;50.298;8.514;2022-12-08T11:40:57;62402.38;;;-147.88;100.00
69198;BME280;56311;50.298;8.514;2022-12-08T11:43:29;62402.38;;;-147.88;100.00
69198;BME280;56311;50.298;8.514;2022-12-08T11:46:02;62402.38;;;-147.88;100.00
69198;BME280;56311;50.298;8.514;2022-12-08T11:48:36;62402.38;;;-147.88;100.00
69198;BME280;56311;50.298;8.514;2022-12-08T11:51:10;62402.38;;;-147.88;100.00
69198;BME280;56311;50.298;8.514;2022-12-08T11:53:42;62402.38;;;-147.88;100.00
69198;BME280;56311;50.298;8.514;2022-12-08T11:56:19;62402.38;;;-147.88;100.00
69198;BME280;56311;50.298;8.514;2022-12-08T11:58:52;62402.38;;;-147.88;100.00
69198;BME280;56311;50.298;8.514;2022-12-08T12:01:22;62402.38;;;-147.88;100.00
69198;BME280;56311;50.298;8.514;2022-12-08T12:03:56;62402.38;;;-147.88;100.00
69198;BME280;56311;50.298;8.514;2022-12-08T12:06:36;62402.38;;;-147.88;100.00
69198;BME280;56311;50.298;8.514;2022-12-08T12:09:32;62402.38;;;-147.88;100.00
69198;BME280;56311;50.298;8.514;2022-12-08T12:12:10;62402.38;;;-147.88;100.00
69198;BME280;56311;50.298;8.514;2022-12-08T12:15:11;62402.38;;;-147.88;100.00
69198;BME280;56311;50.298;8.514;2022-12-08T12:17:44;62402.38;;;-147.88;100.00
69198;BME280;56311;50.298;8.514;2022-12-08T12:20:16;62402.38;;;-147.88;100.00
69198;BME280;56311;50.298;8.514;2022-12-08T12:22:48;62402.38;;;-147.88;100.00
69198;BME280;56311;50.298;8.514;2022-12-08T12:25:19;62402.38;;;-147.88;100.00
69198;BME280;56311;50.298;8.514;2022-12-08T12:27:49;62402.38;;;-147.88;100.00
69198;BME280;56311;50.298;8.514;2022-12-08T12:30:24;62402.38;;;-147.88;100.00
69198;BME280;56311;50.298;8.514;2022-12-08T12:32:54;62402.38;;;-147.88;100.00
69198;BME280;56311;50.298;8.514;2022-12-08T12:35:30;62402.38;;;-147.88;100.00
69198;BME280;56311;50.298;8.514;2022-12-08T12:38:00;62402.38;;;-147.88;100.00
69198;BME280;56311;50.298;8.514;2022-12-08T12:40:35;62402.38;;;-147.88;100.00
69198;BME280;56311;50.298;8.514;2022-12-08T12:43:28;62402.38;;;-147.88;100.00
69198;BME280;56311;50.298;8.514;2022-12-08T12:49:50;62402.38;;;-147.88;100.00
69198;BME280;56311;50.298;8.514;2022-12-08T12:52:44;62402.38;;;-147.88;100.00
69198;BME280;56311;50.298;8.514;2022-12-08T12:55:26;62402.38;;;-147.88;100.00
69198;BME280;56311;50.298;8.514;2022-12-08T12:57:55;62402.38;;;-147.88;100.00
69198;BME280;56311;50.298;8.514;2022-12-08T13:00:25;62402.38;;;-147.88;100.00
69198;BME280;56311;50.298;8.514;2022-12-08T13:02:54;62402.38;;;-147.88;100.00
69198;BME280;56311;50.298;8.514;2022-12-08T13:05:24;62402.38;;;-147.88;100.00
69198;BME280;56311;50.298;8.514;2022-12-08T13:07:55;62402.38;;;-147.88;100.00
69198;BME280;56311;50.298;8.514;2022-12-08T13:10:26;62402.38;;;-147.88;100.00